createdAt,value
2017-10-24T00:01:20.840Z,10.00
2017-10-24T00:03:48.381Z,10.00
2017-10-24T00:06:15.947Z,10.00
2017-10-24T00:08:43.492Z,10.10
2017-10-24T00:11:11.060Z,10.10
2017-10-24T00:13:38.595Z,10.10
2017-10-24T00:16:06.163Z,10.00
2017-10-24T00:18:33.696Z,10.00
2017-10-24T00:21:02.027Z,10.00
2017-10-24T00:23:29.563Z,10.00
2017-10-24T00:25:57.119Z,10.00
2017-10-24T00:28:24.659Z,10.00
2017-10-24T00:30:52.991Z,10.00
2017-10-24T00:33:20.529Z,10.00
2017-10-24T00:35:48.094Z,10.00
2017-10-24T00:38:15.638Z,10.10
2017-10-24T00:40:43.201Z,10.00
2017-10-24T00:43:10.756Z,10.00
2017-10-24T00:45:38.295Z,10.00
2017-10-24T00:48:06.623Z,10.00
2017-10-24T00:50:34.163Z,10.00
2017-10-24T00:53:01.731Z,10.00
2017-10-24T00:55:29.271Z,10.00
2017-10-24T00:57:56.830Z,10.10
2017-10-24T01:00:24.369Z,10.10
2017-10-24T01:02:52.695Z,10.00
2017-10-24T01:05:20.235Z,10.00
2017-10-24T01:07:47.801Z,10.00
2017-10-24T01:10:15.344Z,10.00
2017-10-24T01:12:42.911Z,10.00
2017-10-24T01:15:10.453Z,10.00
2017-10-24T01:17:38.779Z,10.00
2017-10-24T01:20:06.314Z,10.00
2017-10-24T01:22:33.871Z,10.00
2017-10-24T01:25:01.409Z,9.90
2017-10-24T01:27:29.743Z,10.00
2017-10-24T01:29:58.048Z,10.00
2017-10-24T01:32:25.620Z,9.90
2017-10-24T01:34:53.923Z,10.00
2017-10-24T01:37:21.482Z,9.90
2017-10-24T01:39:49.026Z,10.00
2017-10-24T01:42:16.588Z,10.00
2017-10-24T01:44:44.126Z,10.00
2017-10-24T01:47:12.458Z,10.00
2017-10-24T01:49:39.998Z,10.00
2017-10-24T01:52:07.566Z,10.00
2017-10-24T01:54:35.105Z,10.00
2017-10-24T01:57:02.675Z,10.00
2017-10-24T01:59:30.217Z,10.00
2017-10-24T02:01:58.550Z,10.00
2017-10-24T02:04:26.094Z,10.00
2017-10-24T02:06:53.658Z,10.00
2017-10-24T02:09:21.198Z,10.00
2017-10-24T02:11:48.766Z,10.00
2017-10-24T02:14:16.305Z,10.00
2017-10-24T02:16:43.875Z,10.00
2017-10-24T02:19:11.432Z,10.00
2017-10-24T02:21:38.991Z,10.00
2017-10-24T02:24:06.527Z,10.00
2017-10-24T02:26:34.859Z,10.00
2017-10-24T02:29:03.158Z,10.00
2017-10-24T02:31:30.711Z,10.00
2017-10-24T02:33:58.248Z,10.00
2017-10-24T02:36:25.816Z,10.00
2017-10-24T02:38:53.363Z,10.00
2017-10-24T02:41:20.923Z,10.00
2017-10-24T02:43:48.462Z,10.00
2017-10-24T02:46:16.026Z,10.00
2017-10-24T02:48:43.563Z,10.00
2017-10-24T02:51:11.891Z,10.10
2017-10-24T02:53:39.418Z,10.10
2017-10-24T02:56:06.992Z,10.10
2017-10-24T02:58:34.519Z,10.10
2017-10-24T03:01:02.823Z,10.00
2017-10-24T03:03:30.383Z,10.00
2017-10-24T03:05:57.920Z,10.00
2017-10-24T03:08:26.250Z,10.00
2017-10-24T03:10:53.785Z,10.00
2017-10-24T03:13:21.353Z,10.00
2017-10-24T03:15:48.891Z,10.00
2017-10-24T03:18:16.454Z,10.00
2017-10-24T03:20:43.987Z,10.00
2017-10-24T03:23:12.313Z,10.10
2017-10-24T03:25:39.851Z,10.10
2017-10-24T03:28:07.416Z,10.10
2017-10-24T03:30:34.943Z,10.10
2017-10-24T03:33:03.267Z,10.10
2017-10-24T03:35:30.798Z,10.10
2017-10-24T03:37:58.363Z,10.10
2017-10-24T03:40:25.909Z,10.10
2017-10-24T03:42:54.237Z,10.10
2017-10-24T03:45:21.783Z,10.10
2017-10-24T03:47:49.351Z,10.10
2017-10-24T03:50:16.883Z,10.10
2017-10-24T03:52:44.444Z,10.10
2017-10-24T03:55:11.973Z,10.00
2017-10-24T03:57:40.306Z,10.10
2017-10-24T04:00:07.836Z,10.10
2017-10-24T04:02:35.395Z,10.10
2017-10-24T04:05:02.932Z,10.10
2017-10-24T04:07:31.259Z,10.10
2017-10-24T04:09:58.803Z,10.00
2017-10-24T04:12:26.356Z,10.10
2017-10-24T04:14:53.895Z,10.10
2017-10-24T04:17:22.222Z,10.10
2017-10-24T04:19:49.759Z,10.10
2017-10-24T04:22:17.323Z,10.10
2017-10-24T04:24:44.859Z,10.10
2017-10-24T04:27:12.419Z,10.10
2017-10-24T04:29:39.947Z,10.10
2017-10-24T04:32:07.511Z,10.10
2017-10-24T04:34:35.042Z,10.10
2017-10-24T04:37:02.606Z,10.10
2017-10-24T04:39:30.135Z,10.10
2017-10-24T04:41:57.690Z,10.10
2017-10-24T04:44:25.231Z,10.10
2017-10-24T04:46:53.562Z,10.10
2017-10-24T04:49:21.101Z,10.10
2017-10-24T04:51:48.683Z,10.10
2017-10-24T04:54:16.227Z,10.10
2017-10-24T04:56:43.803Z,10.10
2017-10-24T04:59:11.351Z,10.10
2017-10-24T05:01:38.883Z,10.10
2017-10-24T05:04:06.447Z,10.10
2017-10-24T05:06:33.989Z,10.10
2017-10-24T05:09:02.312Z,10.10
2017-10-24T05:11:29.850Z,10.10
2017-10-24T05:13:57.420Z,10.10
2017-10-24T05:16:24.959Z,10.10
2017-10-24T05:18:52.516Z,10.10
2017-10-24T05:21:20.053Z,10.10
2017-10-24T05:23:48.391Z,10.10
2017-10-24T05:26:16.698Z,10.20
2017-10-24T05:28:44.262Z,10.20
2017-10-24T05:31:11.804Z,10.20
2017-10-24T05:33:40.198Z,10.10
2017-10-24T05:36:07.883Z,10.10
2017-10-24T05:38:35.874Z,10.10
2017-10-24T05:41:03.678Z,10.10
2017-10-24T05:43:31.296Z,10.20
2017-10-24T05:45:59.717Z,10.20
2017-10-24T05:48:28.082Z,10.20
2017-10-24T05:50:55.625Z,10.20
2017-10-24T05:53:23.189Z,10.20
2017-10-24T05:55:50.727Z,10.20
2017-10-24T05:58:18.288Z,10.20
2017-10-24T06:00:45.833Z,10.20
2017-10-24T06:03:14.147Z,10.20
2017-10-24T06:05:41.691Z,10.20
2017-10-24T06:08:09.278Z,10.20
2017-10-24T06:10:36.847Z,10.20
2017-10-24T06:13:04.391Z,10.20
2017-10-24T06:15:32.168Z,10.20
2017-10-24T06:17:59.705Z,10.20
2017-10-24T06:20:27.272Z,10.20
2017-10-24T06:22:54.815Z,10.20
2017-10-24T06:25:22.383Z,10.20
2017-10-24T06:27:49.923Z,10.20
2017-10-24T06:30:18.256Z,10.30
2017-10-24T06:32:45.807Z,10.20
2017-10-24T06:35:14.133Z,10.30
2017-10-24T06:37:42.431Z,10.20
2017-10-24T06:40:09.991Z,10.20
2017-10-24T06:42:37.523Z,10.30
2017-10-24T06:45:05.850Z,10.30
2017-10-24T06:47:33.388Z,10.20
2017-10-24T06:50:00.948Z,10.30
2017-10-24T06:52:28.492Z,10.20
2017-10-24T06:54:56.066Z,10.30
2017-10-24T06:57:23.609Z,10.30
2017-10-24T06:59:51.175Z,10.30
2017-10-24T07:02:18.742Z,10.30
2017-10-24T07:04:46.279Z,10.30
2017-10-24T07:07:14.604Z,10.40
2017-10-24T07:09:42.139Z,10.40
2017-10-24T07:12:09.696Z,10.40
2017-10-24T07:14:37.227Z,10.40
2017-10-24T07:17:05.559Z,10.40
2017-10-24T07:19:33.096Z,10.40
2017-10-24T07:22:00.659Z,10.50
2017-10-24T07:24:28.194Z,10.50
2017-10-24T07:26:56.522Z,10.50
2017-10-24T07:29:24.059Z,10.50
2017-10-24T07:31:51.617Z,10.50
2017-10-24T07:34:19.150Z,10.60
2017-10-24T07:36:47.470Z,10.60
2017-10-24T07:39:15.011Z,10.60
2017-10-24T07:41:42.577Z,10.70
2017-10-24T07:44:10.113Z,10.70
2017-10-24T07:46:38.434Z,10.80
2017-10-24T07:49:05.971Z,10.80
2017-10-24T07:51:33.526Z,10.80
2017-10-24T07:54:01.060Z,10.90
2017-10-24T07:56:29.379Z,10.80
2017-10-24T07:58:56.915Z,10.80
2017-10-24T08:01:24.446Z,10.80
2017-10-24T08:03:52.003Z,10.80
2017-10-24T08:06:19.544Z,10.80
2017-10-24T08:08:47.103Z,10.80
2017-10-24T08:11:16.150Z,10.90
2017-10-24T08:13:43.707Z,10.90
2017-10-24T08:16:11.230Z,10.90
2017-10-24T08:18:38.795Z,10.90
2017-10-24T08:21:06.340Z,10.90
2017-10-24T08:23:33.958Z,10.90
2017-10-24T08:26:01.497Z,10.90
2017-10-24T08:28:29.822Z,11.00
2017-10-24T08:30:57.364Z,11.00
2017-10-24T08:33:24.922Z,11.10
2017-10-24T08:35:52.464Z,11.20
2017-10-24T08:38:20.035Z,11.30
2017-10-24T08:40:47.587Z,11.40
2017-10-24T08:43:15.148Z,11.50
2017-10-24T08:45:42.693Z,11.50
2017-10-24T08:48:10.262Z,11.50
2017-10-24T08:50:37.807Z,11.50
2017-10-24T08:53:06.154Z,11.50
2017-10-24T08:55:33.699Z,11.50
2017-10-24T08:58:01.276Z,11.50
2017-10-24T09:00:28.811Z,11.60
2017-10-24T09:02:56.375Z,11.60
2017-10-24T09:05:23.914Z,11.60
2017-10-24T09:07:51.476Z,11.60
2017-10-24T09:14:02.587Z,11.70
2017-10-24T09:22:48.020Z,11.50
2017-10-24T09:25:15.570Z,11.60
2017-10-24T09:27:43.107Z,11.60
2017-10-24T09:30:10.665Z,11.50
2017-10-24T09:32:40.123Z,11.50
2017-10-24T09:35:07.701Z,11.60
2017-10-24T09:37:36.008Z,11.60
2017-10-24T09:40:03.562Z,11.60
2017-10-24T09:42:31.103Z,11.60
2017-10-24T09:44:59.426Z,11.70
2017-10-24T09:47:26.960Z,11.70
2017-10-24T09:49:57.471Z,11.70
2017-10-24T09:52:25.776Z,11.60
2017-10-24T09:54:53.335Z,11.50
2017-10-24T09:57:20.875Z,11.60
2017-10-24T09:59:48.444Z,11.70
2017-10-24T10:02:15.983Z,11.90
2017-10-24T10:04:44.309Z,12.10
2017-10-24T10:07:11.847Z,12.10
2017-10-24T10:09:39.414Z,12.20
2017-10-24T10:12:09.703Z,12.20
2017-10-24T10:14:38.038Z,12.30
2017-10-24T10:17:05.588Z,12.20
2017-10-24T10:19:33.147Z,12.20
2017-10-24T10:22:00.691Z,12.30
2017-10-24T10:24:32.139Z,12.30
2017-10-24T10:26:59.670Z,12.30
2017-10-24T10:29:27.995Z,12.30
2017-10-24T10:31:55.535Z,12.30
2017-10-24T10:34:23.091Z,12.10
2017-10-24T10:36:50.626Z,12.10
2017-10-24T10:39:18.961Z,12.10
2017-10-24T10:41:46.490Z,12.10
2017-10-24T10:44:14.056Z,12.00
2017-10-24T10:46:41.592Z,12.10
2017-10-24T10:49:09.927Z,12.10
2017-10-24T10:51:37.471Z,12.10
2017-10-24T10:54:05.043Z,12.20
2017-10-24T10:56:32.577Z,12.20
2017-10-24T10:59:00.131Z,12.30
2017-10-24T11:01:27.679Z,12.30
2017-10-24T11:03:55.242Z,12.40
2017-10-24T11:06:22.779Z,12.40
2017-10-24T11:08:51.116Z,12.50
2017-10-24T11:11:18.648Z,12.40
2017-10-24T11:13:46.206Z,12.50
2017-10-24T11:16:13.752Z,12.60
2017-10-24T11:18:41.314Z,12.60
2017-10-24T11:21:09.609Z,12.80
2017-10-24T11:23:37.175Z,12.80
2017-10-24T11:26:04.713Z,12.80
2017-10-24T11:28:32.275Z,12.80
2017-10-24T11:30:59.807Z,12.70
2017-10-24T11:33:28.141Z,12.70
2017-10-24T11:35:55.679Z,12.70
2017-10-24T11:38:23.239Z,12.80
2017-10-24T11:40:50.779Z,12.70
2017-10-24T11:43:19.088Z,12.70
2017-10-24T11:45:46.654Z,12.70
2017-10-24T11:48:14.196Z,12.70
2017-10-24T11:50:41.756Z,12.80
2017-10-24T11:53:09.292Z,12.70
2017-10-24T11:55:37.663Z,12.70
2017-10-24T11:58:05.965Z,12.70
2017-10-24T12:00:33.524Z,12.60
2017-10-24T12:03:01.060Z,12.60
2017-10-24T12:05:29.383Z,12.70
2017-10-24T12:07:56.919Z,12.70
2017-10-24T12:10:24.481Z,12.70
2017-10-24T12:12:52.021Z,12.70
2017-10-24T12:15:20.346Z,12.70
2017-10-24T12:17:47.880Z,12.70
2017-10-24T12:20:15.435Z,12.80
2017-10-24T12:22:42.962Z,12.80
2017-10-24T12:25:10.520Z,12.90
2017-10-24T12:27:38.050Z,13.00
2017-10-24T12:30:05.615Z,13.10
2017-10-24T12:32:33.148Z,13.10
2017-10-24T12:35:00.699Z,13.10
2017-10-24T12:37:28.240Z,13.20
2017-10-24T12:39:56.560Z,13.30
2017-10-24T12:42:29.631Z,13.20
2017-10-24T12:45:02.129Z,13.20
2017-10-24T12:47:29.664Z,13.30
2017-10-24T12:50:15.028Z,13.40
2017-10-24T12:52:42.944Z,13.40
2017-10-24T12:55:10.506Z,13.50
2017-10-24T12:57:40.695Z,13.50
2017-10-24T13:00:10.936Z,13.50
2017-10-24T13:02:38.466Z,13.60
2017-10-24T13:05:21.832Z,13.50
2017-10-24T13:07:49.363Z,13.40
2017-10-24T13:10:16.923Z,13.30
2017-10-24T13:12:44.464Z,13.30
2017-10-24T13:15:12.792Z,13.40
2017-10-24T13:17:40.334Z,13.40
2017-10-24T13:20:07.891Z,13.40
2017-10-24T13:22:35.414Z,13.30
2017-10-24T13:25:03.733Z,13.40
2017-10-24T13:27:32.683Z,13.30
2017-10-24T13:30:01.025Z,13.30
2017-10-24T13:32:28.563Z,13.20
2017-10-24T13:34:56.095Z,13.20
2017-10-24T13:37:23.644Z,13.30
2017-10-24T13:39:51.944Z,13.30
2017-10-24T13:42:19.498Z,13.20
2017-10-24T13:44:47.027Z,13.20
2017-10-24T13:47:15.358Z,13.20
2017-10-24T13:49:42.900Z,13.20
2017-10-24T13:52:10.469Z,13.20
2017-10-24T13:54:38.003Z,13.20
2017-10-24T13:57:06.319Z,13.20
2017-10-24T13:59:33.843Z,13.20
2017-10-24T14:02:01.403Z,13.30
2017-10-24T14:04:34.715Z,13.30
2017-10-24T14:07:07.864Z,13.40
2017-10-24T14:09:40.972Z,13.30
2017-10-24T14:12:09.301Z,13.10
2017-10-24T14:14:36.839Z,13.10
2017-10-24T14:17:04.395Z,13.20
2017-10-24T14:19:31.931Z,13.20
2017-10-24T14:21:59.491Z,13.10
2017-10-24T14:24:27.789Z,13.10
2017-10-24T14:26:55.351Z,13.10
2017-10-24T14:29:22.892Z,13.10
2017-10-24T14:31:50.468Z,13.10
2017-10-24T14:34:18.004Z,13.10
2017-10-24T14:36:46.299Z,13.20
2017-10-24T14:39:13.847Z,13.10
2017-10-24T14:41:41.391Z,13.10
2017-10-24T14:44:09.719Z,13.20
2017-10-24T14:46:37.256Z,13.10
2017-10-24T14:49:04.811Z,13.10
2017-10-24T14:51:32.346Z,13.20
2017-10-24T14:54:00.681Z,13.10
2017-10-24T14:56:28.212Z,13.10
2017-10-24T14:58:55.774Z,13.10
2017-10-24T15:01:23.315Z,13.10
2017-10-24T15:03:51.630Z,13.20
2017-10-24T15:06:19.158Z,13.10
2017-10-24T15:08:46.716Z,13.10
2017-10-24T15:11:14.263Z,13.10
2017-10-24T15:13:42.583Z,13.00
2017-10-24T15:16:10.106Z,13.00
2017-10-24T15:18:38.429Z,13.00
2017-10-24T15:21:05.959Z,12.90
2017-10-24T15:23:33.525Z,12.90
2017-10-24T15:26:01.059Z,12.90
2017-10-24T15:28:29.388Z,12.90
2017-10-24T15:30:56.924Z,12.90
2017-10-24T15:33:24.483Z,12.90
2017-10-24T15:35:52.015Z,12.90
2017-10-24T15:38:20.306Z,12.80
2017-10-24T15:40:47.860Z,12.80
2017-10-24T15:43:16.159Z,12.80
2017-10-24T15:45:43.716Z,12.80
2017-10-24T15:48:11.247Z,12.80
2017-10-24T15:50:39.580Z,12.80
2017-10-24T15:53:07.886Z,12.80
2017-10-24T15:55:35.442Z,12.70
2017-10-24T15:58:02.975Z,12.80
2017-10-24T16:00:30.540Z,12.80
2017-10-24T16:02:58.073Z,12.70
2017-10-24T16:05:25.632Z,12.70
2017-10-24T16:07:53.167Z,12.70
2017-10-24T16:10:21.500Z,12.70
2017-10-24T16:12:49.048Z,12.70
2017-10-24T16:15:16.615Z,12.70
2017-10-24T16:17:44.152Z,12.70
2017-10-24T16:20:11.703Z,12.70
2017-10-24T16:22:39.241Z,12.70
2017-10-24T16:25:07.559Z,12.70
2017-10-24T16:27:35.096Z,12.70
2017-10-24T16:30:02.670Z,12.70
2017-10-24T16:32:30.233Z,12.70
2017-10-24T16:34:57.804Z,12.70
2017-10-24T16:37:25.342Z,12.70
2017-10-24T16:39:52.914Z,12.70
2017-10-24T16:42:20.459Z,12.70
2017-10-24T16:44:48.023Z,12.70
2017-10-24T16:47:15.571Z,12.70
2017-10-24T16:49:43.140Z,12.70
2017-10-24T16:52:10.675Z,12.70
2017-10-24T16:54:38.976Z,12.70
2017-10-24T16:57:06.550Z,12.70
2017-10-24T16:59:34.099Z,12.70
2017-10-24T17:02:01.672Z,12.70
2017-10-24T17:04:29.230Z,12.70
2017-10-24T17:06:56.797Z,12.70
2017-10-24T17:09:24.340Z,12.70
2017-10-24T17:11:51.912Z,12.70
2017-10-24T17:14:19.459Z,12.70
2017-10-24T17:16:47.025Z,12.70
2017-10-24T17:19:14.567Z,12.70
2017-10-24T17:21:42.135Z,12.70
2017-10-24T17:24:09.676Z,12.70
2017-10-24T17:26:38.003Z,12.70
2017-10-24T17:29:05.548Z,12.70
2017-10-24T17:31:33.116Z,12.70
2017-10-24T17:34:00.652Z,12.70
2017-10-24T17:36:28.215Z,12.70
2017-10-24T17:38:55.769Z,12.70
2017-10-24T17:41:23.346Z,12.70
2017-10-24T17:43:50.887Z,12.70
2017-10-24T17:46:18.489Z,12.70
2017-10-24T17:48:46.041Z,12.70
2017-10-24T17:51:13.604Z,12.70
2017-10-24T17:53:41.162Z,12.70
2017-10-24T17:56:08.726Z,12.70
2017-10-24T17:58:36.288Z,12.70
2017-10-24T18:01:03.856Z,12.70
2017-10-24T18:03:31.404Z,12.70
2017-10-24T18:05:58.987Z,12.70
2017-10-24T18:08:26.541Z,12.70
2017-10-24T18:10:54.132Z,12.70
2017-10-24T18:13:22.440Z,12.80
2017-10-24T18:15:50.004Z,12.70
2017-10-24T18:18:17.536Z,12.70
2017-10-24T18:20:45.114Z,12.70
2017-10-24T18:23:12.650Z,12.80
2017-10-24T18:25:40.976Z,12.70
2017-10-24T18:28:08.516Z,12.70
2017-10-24T18:30:36.088Z,12.70
2017-10-24T18:33:03.651Z,12.70
2017-10-24T18:35:31.993Z,12.70
2017-10-24T18:37:59.550Z,12.70
2017-10-24T18:40:27.140Z,12.70
2017-10-24T18:42:54.686Z,12.70
2017-10-24T18:45:22.270Z,12.80
2017-10-24T18:47:49.816Z,12.80
2017-10-24T18:50:17.387Z,12.80
2017-10-24T18:52:44.927Z,12.80
2017-10-24T18:55:12.492Z,12.80
2017-10-24T18:57:40.050Z,12.80
2017-10-24T19:00:07.598Z,12.80
2017-10-24T19:02:35.179Z,12.90
2017-10-24T19:05:02.735Z,12.90
2017-10-24T19:07:30.316Z,12.90
2017-10-24T19:09:57.874Z,12.90
2017-10-24T19:12:25.458Z,12.90
2017-10-24T19:14:53.002Z,12.90
2017-10-24T19:17:20.590Z,12.80
2017-10-24T19:19:48.135Z,12.90
2017-10-24T19:22:15.740Z,12.80
2017-10-24T19:24:43.278Z,12.80
2017-10-24T19:27:11.615Z,12.90
2017-10-24T19:29:39.174Z,12.80
2017-10-24T19:32:06.736Z,12.80
2017-10-24T19:34:34.280Z,12.80
2017-10-24T19:37:01.857Z,12.80
2017-10-24T19:39:30.167Z,12.90
2017-10-24T19:41:58.509Z,12.90
2017-10-24T19:44:26.070Z,12.80
2017-10-24T19:46:53.645Z,12.90
2017-10-24T19:49:21.193Z,12.90
2017-10-24T19:51:48.763Z,12.90
2017-10-24T19:54:16.308Z,12.90
2017-10-24T19:56:43.875Z,12.90
2017-10-24T19:59:11.427Z,12.90
2017-10-24T20:01:39.008Z,12.90
2017-10-24T20:04:06.568Z,12.90
2017-10-24T20:06:34.145Z,12.90
2017-10-24T20:09:02.532Z,12.90
2017-10-24T20:11:30.861Z,12.90
2017-10-24T20:13:58.411Z,12.80
2017-10-24T20:16:26.004Z,12.90
2017-10-24T20:18:53.578Z,12.90
2017-10-24T20:21:21.159Z,12.90
2017-10-24T20:23:49.468Z,12.90
2017-10-24T20:26:17.033Z,12.90
2017-10-24T20:28:44.570Z,12.90
2017-10-24T20:31:12.139Z,12.90
2017-10-24T20:33:39.687Z,12.90
2017-10-24T20:36:07.260Z,12.90
2017-10-24T20:38:34.808Z,12.90
2017-10-24T20:41:02.372Z,12.90
2017-10-24T20:43:29.919Z,12.90
2017-10-24T20:45:57.490Z,12.90
2017-10-24T20:48:25.035Z,12.90
2017-10-24T20:50:53.364Z,12.90
2017-10-24T20:53:21.683Z,12.90
2017-10-24T20:55:50.019Z,12.90
2017-10-24T20:58:17.572Z,12.90
2017-10-24T21:00:45.150Z,12.90
2017-10-24T21:03:12.703Z,12.90
2017-10-24T21:05:40.298Z,12.90
2017-10-24T21:08:08.651Z,12.90
2017-10-24T21:10:36.219Z,12.90
2017-10-24T21:13:03.791Z,12.90
2017-10-24T21:15:31.408Z,12.90
2017-10-24T21:17:59.236Z,13.00
2017-10-24T21:20:26.785Z,12.90
2017-10-24T21:22:55.123Z,12.90
2017-10-24T21:25:22.688Z,12.90
2017-10-24T21:27:51.027Z,12.90
2017-10-24T21:30:18.575Z,12.90
2017-10-24T21:32:46.143Z,12.90
2017-10-24T21:35:13.688Z,13.00
2017-10-24T21:37:42.053Z,13.00
2017-10-24T21:40:09.592Z,13.00
2017-10-24T21:42:37.164Z,13.00
2017-10-24T21:45:04.718Z,13.00
2017-10-24T21:47:32.292Z,13.00
2017-10-24T21:50:00.619Z,13.00
2017-10-24T21:52:28.179Z,13.00
2017-10-24T21:54:55.720Z,13.00
2017-10-24T21:57:23.292Z,13.00
2017-10-24T21:59:50.837Z,13.00
2017-10-24T22:02:18.436Z,13.00
2017-10-24T22:04:45.983Z,13.00
2017-10-24T22:07:13.541Z,13.00
2017-10-24T22:09:41.074Z,13.00
2017-10-24T22:12:08.639Z,13.00
2017-10-24T22:14:36.171Z,13.00
2017-10-24T22:17:04.499Z,13.00
2017-10-24T22:19:32.031Z,13.00
2017-10-24T22:21:59.591Z,13.00
2017-10-24T22:24:27.134Z,13.00
2017-10-24T22:26:55.464Z,13.00
2017-10-24T22:29:22.997Z,13.00
2017-10-24T22:52:08.752Z,12.90
2017-10-24T22:55:01.195Z,13.00
2017-10-24T22:57:28.761Z,12.90
2017-10-24T22:59:57.078Z,13.00
2017-10-24T23:02:25.403Z,13.00
2017-10-24T23:04:52.939Z,13.00
2017-10-24T23:07:20.506Z,13.00
2017-10-24T23:09:48.046Z,13.00
2017-10-24T23:12:16.370Z,13.00
2017-10-24T23:14:43.915Z,12.90
2017-10-24T23:17:11.488Z,13.00
2017-10-24T23:19:39.020Z,13.00
2017-10-24T23:22:06.586Z,13.00
2017-10-24T23:24:34.126Z,13.00
2017-10-24T23:27:01.666Z,13.00
2017-10-24T23:29:30.010Z,13.00
2017-10-24T23:31:57.564Z,12.90
2017-10-24T23:34:25.126Z,13.00
2017-10-24T23:36:52.665Z,13.00
2017-10-24T23:39:20.232Z,13.00
2017-10-24T23:41:47.774Z,13.00
2017-10-24T23:44:15.334Z,13.10
2017-10-24T23:46:42.875Z,13.10
2017-10-24T23:49:11.217Z,13.10
2017-10-24T23:51:38.771Z,13.10
2017-10-24T23:54:06.340Z,13.10
2017-10-24T23:56:33.874Z,13.10
2017-10-24T23:59:01.426Z,13.10
